Pana, Illinois
Current Conditions -  °F | °C
As of 8:35 PM on Sunday 21 Dec 2014 (Local Time) from KTAZ Reporting Station
Overcast Overcast  
Wind Chill: -2°   Ceiling: 3900
Heat Index:   Visibility: 10mi
Dew Point: -1°   Wind: 12mph
Humidity: 81%   Direction: 140°SE
Pressure: 30.02"   Gusts: 17mph
Location:  39.39°N, 89.08°W
Report Text: KTAZ 220235Z AUTO 14010G15KT 10SM OVC039 02/M01 A3002 RMK AO2
Loading
Personal Weather Stations






























Interactive Weather Map New forecast layout! Learn more

10-Day Weather Forecast

Advertisements
Track Severe Weather on mobile